Eko 2 — SY9957 — position and weather

sailwx.info

Track history (hours):
 
Tides and Currents Weather Stations Pressure Air Temp Water Temp Dewpoint Dewpoint Depression Visibility Wind Speed Wind Dir Waves Ship Positions

Eko 2

Last reported at 2018-Apr-20 01:25 UTC. Time now 2018-Apr-21 00:23 UTC.
Position N 37°04' E 025°40'.

Length 89 m; draft 4.3 m.

Type: Ship (hazmat cat A). MMSI: 240827000.

Date/timePositionNaut miles runAvg speedWind from/ knotsBaromVisibWave heightAir tempDewpointWater temp
2018-Apr-20 01:25N 37°04' E 025°40'4 8.6
2018-Apr-20 01:01N 37°07' E 025°38'9 9.1
2018-Apr-20 00:03N 37°14' E 025°30'010.4
2018-Apr-20 00:00N 37°14' E 025°30'510.2
2018-Apr-19 23:30N 37°15' E 025°23'510.2
2018-Apr-19 23:00N 37°16' E 025°17'510.1
2018-Apr-19 22:30N 37°18' E 025°11'710.1
2018-Apr-19 21:49N 37°19' E 025°03'310.3
2018-Apr-19 21:30N 37°20' E 024°59'510.5
2018-Apr-19 21:00N 37°21' E 024°52'510.4
2018-Apr-19 20:30N 37°23' E 024°46'5210.1
2018-Apr-19 15:25N 37°38' E 023°44'410.1
2018-Apr-19 15:00N 37°41' E 023°41'510.3
2018-Apr-19 14:30N 37°46' E 023°38'510.3
2018-Apr-19 14:00N 37°51' E 023°36'510.5
2018-Apr-19 13:30N 37°56' E 023°36'4 8.6
2018-Apr-19 13:00N 37°60' E 023°33'2 3.6
2018-Apr-19 12:28N 38°01' E 023°32'0 0.0
2018-Apr-19 11:58N 38°01' E 023°32'0 0.0
2018-Apr-19 11:28N 38°01' E 023°32'1 1.3
2018-Apr-19 11:00N 38°02' E 023°33'0 0.3
2018-Apr-19 10:30N 38°02' E 023°32'0 0.0
2018-Apr-19 10:00N 38°02' E 023°32'0 0.0
2018-Apr-19 09:30N 38°02' E 023°32'0 0.0
2018-Apr-19 09:00N 38°02' E 023°32'0 0.0
2018-Apr-19 08:30N 38°02' E 023°32'0 0.0
2018-Apr-19 08:00N 38°02' E 023°32'0 0.0
2018-Apr-19 07:30N 38°02' E 023°32'0 0.0
2018-Apr-19 06:57N 38°02' E 023°32'0 0.0
2018-Apr-19 06:30N 38°02' E 023°32'0 0.0
2018-Apr-19 06:00N 38°02' E 023°32'0 0.0
2018-Apr-19 05:30N 38°02' E 023°32'0 0.0
2018-Apr-19 05:00N 38°02' E 023°32'0 0.0
2018-Apr-19 04:30N 38°02' E 023°32'0 0.0
2018-Apr-19 04:00N 38°02' E 023°32'0 0.0
2018-Apr-19 03:30N 38°02' E 023°32'0 0.0
2018-Apr-19 03:00N 38°02' E 023°32'0 0.0
2018-Apr-19 02:30N 38°02' E 023°32'0 0.0
2018-Apr-19 02:00N 38°02' E 023°32'0 0.0
2018-Apr-19 01:30N 38°02' E 023°32'0 0.0
2018-Apr-19 01:00N 38°02' E 023°32'0 0.0
2018-Apr-19 00:30N 38°02' E 023°32'0 0.0
2018-Apr-19 00:00N 38°02' E 023°32'0 0.0
2018-Apr-18 23:30N 38°02' E 023°32'0 0.0
2018-Apr-18 23:00N 38°02' E 023°32'0 0.0
2018-Apr-18 22:30N 38°02' E 023°32'0 0.0
2018-Apr-18 22:00N 38°02' E 023°32'0 0.0
2018-Apr-18 21:30N 38°02' E 023°32'0 0.0
2018-Apr-18 21:00N 38°02' E 023°32'0 0.0
2018-Apr-18 20:27N 38°02' E 023°32'0 0.0
2018-Apr-18 20:00N 38°02' E 023°32'0 0.0
2018-Apr-18 19:30N 38°02' E 023°32'0 0.0
2018-Apr-18 19:00N 38°02' E 023°32'0 0.0
2018-Apr-18 18:30N 38°02' E 023°32'0 0.0
2018-Apr-18 18:00N 38°02' E 023°32'0 0.0
2018-Apr-18 17:30N 38°02' E 023°32'0 0.0
2018-Apr-18 17:00N 38°02' E 023°32'0 0.0
2018-Apr-18 16:30N 38°02' E 023°32'0 0.0
2018-Apr-18 16:00N 38°02' E 023°32'0 0.0
2018-Apr-18 15:30N 38°02' E 023°32'0 0.0
2018-Apr-18 15:00N 38°02' E 023°32'0 0.0
2018-Apr-18 14:30N 38°02' E 023°32'0 0.0
2018-Apr-18 14:00N 38°02' E 023°32'0 0.0
2018-Apr-18 13:30N 38°02' E 023°32'0 0.0
2018-Apr-18 13:00N 38°02' E 023°32'0 0.0
2018-Apr-18 12:30N 38°02' E 023°32'0 0.0
2018-Apr-18 11:57N 38°02' E 023°32'0 0.0
2018-Apr-18 11:30N 38°02' E 023°32'0 0.0
2018-Apr-18 11:00N 38°02' E 023°32'0 0.0
2018-Apr-18 10:30N 38°02' E 023°32'0 0.0
2018-Apr-18 10:00N 38°02' E 023°32'0 0.0
2018-Apr-18 09:30N 38°02' E 023°32'0 0.0
2018-Apr-18 09:00N 38°02' E 023°32'0 0.0
2018-Apr-18 08:30N 38°02' E 023°32'0 0.0
2018-Apr-18 08:00N 38°02' E 023°32'0 0.0
2018-Apr-18 07:30N 38°02' E 023°32'0 0.0
2018-Apr-18 07:00N 38°02' E 023°32'0 0.0
2018-Apr-18 06:30N 38°02' E 023°32'0 0.0
2018-Apr-18 06:00N 38°02' E 023°32'0 0.0
2018-Apr-18 05:30N 38°02' E 023°32'0 0.0
2018-Apr-18 05:00N 38°02' E 023°32'0 0.0
2018-Apr-18 04:30N 38°02' E 023°32'0 0.0
2018-Apr-18 04:00N 38°02' E 023°32'0 0.0
2018-Apr-18 03:30N 38°02' E 023°32'0 0.0
2018-Apr-18 03:00N 38°02' E 023°32'0 0.0
2018-Apr-18 02:30N 38°02' E 023°32'0 0.0
2018-Apr-18 02:00N 38°02' E 023°32'0 0.0
2018-Apr-18 01:27N 38°02' E 023°32'0 0.0
2018-Apr-18 01:00N 38°02' E 023°32'0 0.0
2018-Apr-18 00:30N 38°02' E 023°32'0 0.0
2018-Apr-18 00:00N 38°02' E 023°32'0 0.0
2018-Apr-17 23:30N 38°02' E 023°32'0 0.0
2018-Apr-17 23:00N 38°02' E 023°32'0 0.0
2018-Apr-17 22:30N 38°02' E 023°32'0 0.0
2018-Apr-17 22:00N 38°02' E 023°32'0 0.0
2018-Apr-17 21:30N 38°02' E 023°32'0 0.0
2018-Apr-17 21:00N 38°02' E 023°32'0 0.0
2018-Apr-17 20:30N 38°02' E 023°32'0 0.0
2018-Apr-17 20:00N 38°02' E 023°32'0 0.0
2018-Apr-17 19:30N 38°02' E 023°32'0 0.0
2018-Apr-17 19:00N 38°02' E 023°32'0 0.0
2018-Apr-17 18:30N 38°02' E 023°32'0 0.0
2018-Apr-17 18:00N 38°02' E 023°32'0 0.0
2018-Apr-17 17:30N 38°02' E 023°32'0 0.0
2018-Apr-17 17:00N 38°02' E 023°32'0 0.0
2018-Apr-17 16:30N 38°02' E 023°32'0 0.0
2018-Apr-17 16:00N 38°02' E 023°32'0 0.0
2018-Apr-17 15:30N 38°02' E 023°32'0 0.0
2018-Apr-17 15:00N 38°02' E 023°32'0 0.0
2018-Apr-17 14:30N 38°02' E 023°32'0 0.0
2018-Apr-17 14:00N 38°02' E 023°32'0 0.0
2018-Apr-17 13:30N 38°02' E 023°32'0 0.0
2018-Apr-17 13:00N 38°02' E 023°32'0 0.0
2018-Apr-17 12:30N 38°02' E 023°32'0 0.0
2018-Apr-17 12:00N 38°02' E 023°32'0 0.0
2018-Apr-17 11:30N 38°02' E 023°32'0 0.0
2018-Apr-17 11:00N 38°02' E 023°32'0 0.0
2018-Apr-17 10:30N 38°02' E 023°32'0 0.0
2018-Apr-17 10:00N 38°02' E 023°32'0 0.0
2018-Apr-17 09:30N 38°02' E 023°32'0 0.0
2018-Apr-17 09:00N 38°02' E 023°32'0 0.0
2018-Apr-17 08:30N 38°02' E 023°32'0 0.0
2018-Apr-17 08:00N 38°02' E 023°32'0 0.0
2018-Apr-17 07:30N 38°02' E 023°32'0 0.0
2018-Apr-17 07:00N 38°02' E 023°32'0 0.0
2018-Apr-17 06:30N 38°02' E 023°32'0 0.0
2018-Apr-17 06:00N 38°02' E 023°32'0 0.0
2018-Apr-17 05:30N 38°02' E 023°32'0 0.0
2018-Apr-17 05:00N 38°02' E 023°32'0 0.0
2018-Apr-17 04:30N 38°02' E 023°32'0 0.0
2018-Apr-17 04:00N 38°02' E 023°32'0 0.0
2018-Apr-17 03:30N 38°02' E 023°32'0 0.0
2018-Apr-17 03:00N 38°02' E 023°32'0 0.0
2018-Apr-17 02:30N 38°02' E 023°32'0 0.0
2018-Apr-17 02:00N 38°02' E 023°32'0 0.0
2018-Apr-17 01:30N 38°02' E 023°32'0 0.0
2018-Apr-17 01:00N 38°02' E 023°32'0 0.0
2018-Apr-17 00:30N 38°02' E 023°32'0 0.0
2018-Apr-17 00:00N 38°02' E 023°32'0 0.0
2018-Apr-16 23:30N 38°02' E 023°32'0 0.0
2018-Apr-16 23:00N 38°02' E 023°32'0 0.0
2018-Apr-16 22:30N 38°02' E 023°32'0 0.0
2018-Apr-16 22:00N 38°02' E 023°32'0 0.0
2018-Apr-16 21:30N 38°02' E 023°32'0 0.0
2018-Apr-16 21:00N 38°02' E 023°32'0 0.0
2018-Apr-16 20:30N 38°02' E 023°32'0 0.0
2018-Apr-16 20:00N 38°02' E 023°32'0 0.0
2018-Apr-16 19:30N 38°02' E 023°32'0 0.0
2018-Apr-16 19:00N 38°02' E 023°32'0 0.0
2018-Apr-16 18:30N 38°02' E 023°32'0 0.0
2018-Apr-16 18:00N 38°02' E 023°32'0 0.0
2018-Apr-16 17:30N 38°02' E 023°32'0 0.0
2018-Apr-16 17:00N 38°02' E 023°32'0 0.0
2018-Apr-16 16:30N 38°02' E 023°32'0 0.0
2018-Apr-16 16:00N 38°02' E 023°32'1 2.0
2018-Apr-16 15:30N 38°02' E 023°34'2 3.1
2018-Apr-16 15:00N 38°02' E 023°36'0 0.0
2018-Apr-16 14:30N 38°02' E 023°36'0 0.0
2018-Apr-16 14:00N 38°02' E 023°36'0 0.0
2018-Apr-16 13:30N 38°02' E 023°36'0 0.0
2018-Apr-16 13:00N 38°02' E 023°36'0 0.0
2018-Apr-16 12:30N 38°02' E 023°36'0 0.0
2018-Apr-16 11:57N 38°02' E 023°36'0 0.0
2018-Apr-16 11:30N 38°02' E 023°36'0 0.0
2018-Apr-16 11:00N 38°02' E 023°36'0 0.0
2018-Apr-16 10:30N 38°02' E 023°36'0 0.0
2018-Apr-16 09:57N 38°02' E 023°36'0 0.0
2018-Apr-16 09:30N 38°02' E 023°36'0 0.0
2018-Apr-16 08:54N 38°02' E 023°36'0 0.0
2018-Apr-16 08:30N 38°02' E 023°36'0 0.0
2018-Apr-16 08:00N 38°02' E 023°36'0 0.0
2018-Apr-16 07:30N 38°02' E 023°36'0 0.0
2018-Apr-16 07:00N 38°02' E 023°36'1 1.3
2018-Apr-16 06:29N 38°02' E 023°35'0 0.9
2018-Apr-16 06:00N 38°02' E 023°34'2 4.4
2018-Apr-16 05:30N 37°60' E 023°33'4 8.6
2018-Apr-16 05:00N 37°56' E 023°35'3 5.2
2018-Apr-16 04:30N 37°54' E 023°37'0 0.6
2018-Apr-16 04:00N 37°54' E 023°37'4 7.5
2018-Apr-16 03:31N 37°50' E 023°40'611.1
2018-Apr-16 03:00N 37°45' E 023°43'5410.7
2018-Apr-15 22:00N 37°23' E 024°44'511.0
2018-Apr-15 21:30N 37°20' E 024°50'511.0
2018-Apr-15 21:00N 37°18' E 024°57'611.2
2018-Apr-15 20:30N 37°17' E 025°03'611.2
2018-Apr-15 20:01N 37°16' E 025°10'510.9
2018-Apr-15 19:30N 37°16' E 025°17'610.9
2018-Apr-15 18:59N 37°15' E 025°24'1210.5
2018-Apr-15 17:51N 37°13' E 025°39'310.1
2018-Apr-15 17:30N 37°13' E 025°43'  
2018-Apr-13 11:48N 39°52' E 025°03'0 0.1
2018-Apr-13 11:25N 39°52' E 025°03'0 0.0
2018-Apr-13 09:44N 39°52' E 025°03'0 0.0
2018-Apr-13 09:24N 39°52' E 025°03'0 0.0
2018-Apr-13 08:51N 39°52' E 025°03'0 0.0
2018-Apr-13 07:32N 39°52' E 025°03'0 0.0
2018-Apr-13 07:28N 39°52' E 025°03'0 0.0
2018-Apr-13 05:45N 39°52' E 025°03'0 0.0
2018-Apr-13 05:28N 39°52' E 025°03'0 0.0
2018-Apr-13 05:00N 39°52' E 025°03'0 0.0
2018-Apr-13 04:30N 39°52' E 025°03'0 0.0
2018-Apr-13 04:00N 39°52' E 025°03'0 0.0
2018-Apr-13 03:29N 39°52' E 025°03'0 0.0
2018-Apr-13 02:59N 39°52' E 025°03'0 0.0
2018-Apr-13 01:57N 39°52' E 025°03'0 0.0
2018-Apr-13 01:30N 39°52' E 025°03'0 0.0
2018-Apr-13 00:26N 39°52' E 025°03'0 0.0
2018-Apr-13 00:00N 39°52' E 025°03'0 0.0
2018-Apr-12 23:30N 39°52' E 025°03'0 0.0
2018-Apr-12 23:00N 39°52' E 025°03'0 0.0
2018-Apr-12 22:30N 39°52' E 025°03'0 0.0
2018-Apr-12 21:43N 39°52' E 025°03'0 0.0
2018-Apr-12 17:02N 39°52' E 025°03'0 0.0
2018-Apr-12 16:43N 39°52' E 025°03'0 0.0
2018-Apr-12 13:10N 39°52' E 025°03'2 5.5
2018-Apr-12 12:51N 39°52' E 025°01'611.0
2018-Apr-12 12:20N 39°48' E 024°55'411.0
2018-Apr-12 11:57N 39°46' E 024°51'1410.9
2018-Apr-12 10:41N 39°37' E 024°37'410.6
2018-Apr-12 10:18N 39°34' E 024°33'310.6
2018-Apr-12 10:00N 39°32' E 024°30'910.6
2018-Apr-12 09:09N 39°26' E 024°21'510.5
2018-Apr-12 08:42N 39°23' E 024°16'410.6
2018-Apr-12 08:19N 39°20' E 024°13'  
Track history (hours):
 
Tides and Currents Weather Stations Pressure Air Temp Water Temp Dewpoint Dewpoint Depression Visibility Wind Speed Wind Dir Waves Ship Positions

Eko 2

Last reported at 2018-Apr-20 01:25 UTC. Time now 2018-Apr-21 00:23 UTC.
Position N 37°04' E 025°40'.

Length 89 m; draft 4.3 m.

Type: Ship (hazmat cat A). MMSI: 240827000.

Date/timePositionNaut miles runAvg speedWind from/ knotsBaromVisibWave heightAir tempDewpointWater temp
2018-Apr-20 01:25N 37°04' E 025°40'4 8.6
2018-Apr-20 01:01N 37°07' E 025°38'9 9.1
2018-Apr-20 00:03N 37°14' E 025°30'010.4
2018-Apr-20 00:00N 37°14' E 025°30'510.2
2018-Apr-19 23:30N 37°15' E 025°23'510.2
2018-Apr-19 23:00N 37°16' E 025°17'510.1
2018-Apr-19 22:30N 37°18' E 025°11'710.1
2018-Apr-19 21:49N 37°19' E 025°03'310.3
2018-Apr-19 21:30N 37°20' E 024°59'510.5
2018-Apr-19 21:00N 37°21' E 024°52'510.4
2018-Apr-19 20:30N 37°23' E 024°46'5210.1
2018-Apr-19 15:25N 37°38' E 023°44'410.1
2018-Apr-19 15:00N 37°41' E 023°41'510.3
2018-Apr-19 14:30N 37°46' E 023°38'510.3
2018-Apr-19 14:00N 37°51' E 023°36'510.5
2018-Apr-19 13:30N 37°56' E 023°36'4 8.6
2018-Apr-19 13:00N 37°60' E 023°33'2 3.6
2018-Apr-19 12:28N 38°01' E 023°32'0 0.0
2018-Apr-19 11:58N 38°01' E 023°32'0 0.0
2018-Apr-19 11:28N 38°01' E 023°32'1 1.3
2018-Apr-19 11:00N 38°02' E 023°33'0 0.3
2018-Apr-19 10:30N 38°02' E 023°32'0 0.0
2018-Apr-19 10:00N 38°02' E 023°32'0 0.0
2018-Apr-19 09:30N 38°02' E 023°32'0 0.0
2018-Apr-19 09:00N 38°02' E 023°32'0 0.0
2018-Apr-19 08:30N 38°02' E 023°32'0 0.0
2018-Apr-19 08:00N 38°02' E 023°32'0 0.0
2018-Apr-19 07:30N 38°02' E 023°32'0 0.0
2018-Apr-19 06:57N 38°02' E 023°32'0 0.0
2018-Apr-19 06:30N 38°02' E 023°32'0 0.0
2018-Apr-19 06:00N 38°02' E 023°32'0 0.0
2018-Apr-19 05:30N 38°02' E 023°32'0 0.0
2018-Apr-19 05:00N 38°02' E 023°32'0 0.0
2018-Apr-19 04:30N 38°02' E 023°32'0 0.0
2018-Apr-19 04:00N 38°02' E 023°32'0 0.0
2018-Apr-19 03:30N 38°02' E 023°32'0 0.0
2018-Apr-19 03:00N 38°02' E 023°32'0 0.0
2018-Apr-19 02:30N 38°02' E 023°32'0 0.0
2018-Apr-19 02:00N 38°02' E 023°32'0 0.0
2018-Apr-19 01:30N 38°02' E 023°32'0 0.0
2018-Apr-19 01:00N 38°02' E 023°32'0 0.0
2018-Apr-19 00:30N 38°02' E 023°32'0 0.0
2018-Apr-19 00:00N 38°02' E 023°32'0 0.0
2018-Apr-18 23:30N 38°02' E 023°32'0 0.0
2018-Apr-18 23:00N 38°02' E 023°32'0 0.0
2018-Apr-18 22:30N 38°02' E 023°32'0 0.0
2018-Apr-18 22:00N 38°02' E 023°32'0 0.0
2018-Apr-18 21:30N 38°02' E 023°32'0 0.0
2018-Apr-18 21:00N 38°02' E 023°32'0 0.0
2018-Apr-18 20:27N 38°02' E 023°32'0 0.0
2018-Apr-18 20:00N 38°02' E 023°32'0 0.0
2018-Apr-18 19:30N 38°02' E 023°32'0 0.0
2018-Apr-18 19:00N 38°02' E 023°32'0 0.0
2018-Apr-18 18:30N 38°02' E 023°32'0 0.0
2018-Apr-18 18:00N 38°02' E 023°32'0 0.0
2018-Apr-18 17:30N 38°02' E 023°32'0 0.0
2018-Apr-18 17:00N 38°02' E 023°32'0 0.0
2018-Apr-18 16:30N 38°02' E 023°32'0 0.0
2018-Apr-18 16:00N 38°02' E 023°32'0 0.0
2018-Apr-18 15:30N 38°02' E 023°32'0 0.0
2018-Apr-18 15:00N 38°02' E 023°32'0 0.0
2018-Apr-18 14:30N 38°02' E 023°32'0 0.0
2018-Apr-18 14:00N 38°02' E 023°32'0 0.0
2018-Apr-18 13:30N 38°02' E 023°32'0 0.0
2018-Apr-18 13:00N 38°02' E 023°32'0 0.0
2018-Apr-18 12:30N 38°02' E 023°32'0 0.0
2018-Apr-18 11:57N 38°02' E 023°32'0 0.0
2018-Apr-18 11:30N 38°02' E 023°32'0 0.0
2018-Apr-18 11:00N 38°02' E 023°32'0 0.0
2018-Apr-18 10:30N 38°02' E 023°32'0 0.0
2018-Apr-18 10:00N 38°02' E 023°32'0 0.0
2018-Apr-18 09:30N 38°02' E 023°32'0 0.0
2018-Apr-18 09:00N 38°02' E 023°32'0 0.0
2018-Apr-18 08:30N 38°02' E 023°32'0 0.0
2018-Apr-18 08:00N 38°02' E 023°32'0 0.0
2018-Apr-18 07:30N 38°02' E 023°32'0 0.0
2018-Apr-18 07:00N 38°02' E 023°32'0 0.0
2018-Apr-18 06:30N 38°02' E 023°32'0 0.0
2018-Apr-18 06:00N 38°02' E 023°32'0 0.0
2018-Apr-18 05:30N 38°02' E 023°32'0 0.0
2018-Apr-18 05:00N 38°02' E 023°32'0 0.0
2018-Apr-18 04:30N 38°02' E 023°32'0 0.0
2018-Apr-18 04:00N 38°02' E 023°32'0 0.0
2018-Apr-18 03:30N 38°02' E 023°32'0 0.0
2018-Apr-18 03:00N 38°02' E 023°32'0 0.0
2018-Apr-18 02:30N 38°02' E 023°32'0 0.0
2018-Apr-18 02:00N 38°02' E 023°32'0 0.0
2018-Apr-18 01:27N 38°02' E 023°32'0 0.0
2018-Apr-18 01:00N 38°02' E 023°32'0 0.0
2018-Apr-18 00:30N 38°02' E 023°32'0 0.0
2018-Apr-18 00:00N 38°02' E 023°32'0 0.0
2018-Apr-17 23:30N 38°02' E 023°32'0 0.0
2018-Apr-17 23:00N 38°02' E 023°32'0 0.0
2018-Apr-17 22:30N 38°02' E 023°32'0 0.0
2018-Apr-17 22:00N 38°02' E 023°32'0 0.0
2018-Apr-17 21:30N 38°02' E 023°32'0 0.0
2018-Apr-17 21:00N 38°02' E 023°32'0 0.0
2018-Apr-17 20:30N 38°02' E 023°32'0 0.0
2018-Apr-17 20:00N 38°02' E 023°32'0 0.0
2018-Apr-17 19:30N 38°02' E 023°32'0 0.0
2018-Apr-17 19:00N 38°02' E 023°32'0 0.0
2018-Apr-17 18:30N 38°02' E 023°32'0 0.0
2018-Apr-17 18:00N 38°02' E 023°32'0 0.0
2018-Apr-17 17:30N 38°02' E 023°32'0 0.0
2018-Apr-17 17:00N 38°02' E 023°32'0 0.0
2018-Apr-17 16:30N 38°02' E 023°32'0 0.0
2018-Apr-17 16:00N 38°02' E 023°32'0 0.0
2018-Apr-17 15:30N 38°02' E 023°32'0 0.0
2018-Apr-17 15:00N 38°02' E 023°32'0 0.0
2018-Apr-17 14:30N 38°02' E 023°32'0 0.0
2018-Apr-17 14:00N 38°02' E 023°32'0 0.0
2018-Apr-17 13:30N 38°02' E 023°32'0 0.0
2018-Apr-17 13:00N 38°02' E 023°32'0 0.0
2018-Apr-17 12:30N 38°02' E 023°32'0 0.0
2018-Apr-17 12:00N 38°02' E 023°32'0 0.0
2018-Apr-17 11:30N 38°02' E 023°32'0 0.0
2018-Apr-17 11:00N 38°02' E 023°32'0 0.0
2018-Apr-17 10:30N 38°02' E 023°32'0 0.0
2018-Apr-17 10:00N 38°02' E 023°32'0 0.0
2018-Apr-17 09:30N 38°02' E 023°32'0 0.0
2018-Apr-17 09:00N 38°02' E 023°32'0 0.0
2018-Apr-17 08:30N 38°02' E 023°32'0 0.0
2018-Apr-17 08:00N 38°02' E 023°32'0 0.0
2018-Apr-17 07:30N 38°02' E 023°32'0 0.0
2018-Apr-17 07:00N 38°02' E 023°32'0 0.0
2018-Apr-17 06:30N 38°02' E 023°32'0 0.0
2018-Apr-17 06:00N 38°02' E 023°32'0 0.0
2018-Apr-17 05:30N 38°02' E 023°32'0 0.0
2018-Apr-17 05:00N 38°02' E 023°32'0 0.0
2018-Apr-17 04:30N 38°02' E 023°32'0 0.0
2018-Apr-17 04:00N 38°02' E 023°32'0 0.0
2018-Apr-17 03:30N 38°02' E 023°32'0 0.0
2018-Apr-17 03:00N 38°02' E 023°32'0 0.0
2018-Apr-17 02:30N 38°02' E 023°32'0 0.0
2018-Apr-17 02:00N 38°02' E 023°32'0 0.0
2018-Apr-17 01:30N 38°02' E 023°32'0 0.0
2018-Apr-17 01:00N 38°02' E 023°32'0 0.0
2018-Apr-17 00:30N 38°02' E 023°32'0 0.0
2018-Apr-17 00:00N 38°02' E 023°32'0 0.0
2018-Apr-16 23:30N 38°02' E 023°32'0 0.0
2018-Apr-16 23:00N 38°02' E 023°32'0 0.0
2018-Apr-16 22:30N 38°02' E 023°32'0 0.0
2018-Apr-16 22:00N 38°02' E 023°32'0 0.0
2018-Apr-16 21:30N 38°02' E 023°32'0 0.0
2018-Apr-16 21:00N 38°02' E 023°32'0 0.0
2018-Apr-16 20:30N 38°02' E 023°32'0 0.0
2018-Apr-16 20:00N 38°02' E 023°32'0 0.0
2018-Apr-16 19:30N 38°02' E 023°32'0 0.0
2018-Apr-16 19:00N 38°02' E 023°32'0 0.0
2018-Apr-16 18:30N 38°02' E 023°32'0 0.0
2018-Apr-16 18:00N 38°02' E 023°32'0 0.0
2018-Apr-16 17:30N 38°02' E 023°32'0 0.0
2018-Apr-16 17:00N 38°02' E 023°32'0 0.0
2018-Apr-16 16:30N 38°02' E 023°32'0 0.0
2018-Apr-16 16:00N 38°02' E 023°32'1 2.0
2018-Apr-16 15:30N 38°02' E 023°34'2 3.1
2018-Apr-16 15:00N 38°02' E 023°36'0 0.0
2018-Apr-16 14:30N 38°02' E 023°36'0 0.0
2018-Apr-16 14:00N 38°02' E 023°36'0 0.0
2018-Apr-16 13:30N 38°02' E 023°36'0 0.0
2018-Apr-16 13:00N 38°02' E 023°36'0 0.0
2018-Apr-16 12:30N 38°02' E 023°36'0 0.0
2018-Apr-16 11:57N 38°02' E 023°36'0 0.0
2018-Apr-16 11:30N 38°02' E 023°36'0 0.0
2018-Apr-16 11:00N 38°02' E 023°36'0 0.0
2018-Apr-16 10:30N 38°02' E 023°36'0 0.0
2018-Apr-16 09:57N 38°02' E 023°36'0 0.0
2018-Apr-16 09:30N 38°02' E 023°36'0 0.0
2018-Apr-16 08:54N 38°02' E 023°36'0 0.0
2018-Apr-16 08:30N 38°02' E 023°36'0 0.0
2018-Apr-16 08:00N 38°02' E 023°36'0 0.0
2018-Apr-16 07:30N 38°02' E 023°36'0 0.0
2018-Apr-16 07:00N 38°02' E 023°36'1 1.3
2018-Apr-16 06:29N 38°02' E 023°35'0 0.9
2018-Apr-16 06:00N 38°02' E 023°34'2 4.4
2018-Apr-16 05:30N 37°60' E 023°33'4 8.6
2018-Apr-16 05:00N 37°56' E 023°35'3 5.2
2018-Apr-16 04:30N 37°54' E 023°37'0 0.6
2018-Apr-16 04:00N 37°54' E 023°37'4 7.5
2018-Apr-16 03:31N 37°50' E 023°40'611.1
2018-Apr-16 03:00N 37°45' E 023°43'5410.7
2018-Apr-15 22:00N 37°23' E 024°44'511.0
2018-Apr-15 21:30N 37°20' E 024°50'511.0
2018-Apr-15 21:00N 37°18' E 024°57'611.2
2018-Apr-15 20:30N 37°17' E 025°03'611.2
2018-Apr-15 20:01N 37°16' E 025°10'510.9
2018-Apr-15 19:30N 37°16' E 025°17'610.9
2018-Apr-15 18:59N 37°15' E 025°24'1210.5
2018-Apr-15 17:51N 37°13' E 025°39'310.1
2018-Apr-15 17:30N 37°13' E 025°43'  
2018-Apr-13 11:48N 39°52' E 025°03'0 0.1
2018-Apr-13 11:25N 39°52' E 025°03'0 0.0
2018-Apr-13 09:44N 39°52' E 025°03'0 0.0
2018-Apr-13 09:24N 39°52' E 025°03'0 0.0
2018-Apr-13 08:51N 39°52' E 025°03'0 0.0
2018-Apr-13 07:32N 39°52' E 025°03'0 0.0
2018-Apr-13 07:28N 39°52' E 025°03'0 0.0
2018-Apr-13 05:45N 39°52' E 025°03'0 0.0
2018-Apr-13 05:28N 39°52' E 025°03'0 0.0
2018-Apr-13 05:00N 39°52' E 025°03'0 0.0
2018-Apr-13 04:30N 39°52' E 025°03'0 0.0
2018-Apr-13 04:00N 39°52' E 025°03'0 0.0
2018-Apr-13 03:29N 39°52' E 025°03'0 0.0
2018-Apr-13 02:59N 39°52' E 025°03'0 0.0
2018-Apr-13 01:57N 39°52' E 025°03'0 0.0
2018-Apr-13 01:30N 39°52' E 025°03'0 0.0
2018-Apr-13 00:26N 39°52' E 025°03'0 0.0
2018-Apr-13 00:00N 39°52' E 025°03'0 0.0
2018-Apr-12 23:30N 39°52' E 025°03'0 0.0
2018-Apr-12 23:00N 39°52' E 025°03'0 0.0
2018-Apr-12 22:30N 39°52' E 025°03'0 0.0
2018-Apr-12 21:43N 39°52' E 025°03'0 0.0
2018-Apr-12 17:02N 39°52' E 025°03'0 0.0
2018-Apr-12 16:43N 39°52' E 025°03'0 0.0
2018-Apr-12 13:10N 39°52' E 025°03'2 5.5
2018-Apr-12 12:51N 39°52' E 025°01'611.0
2018-Apr-12 12:20N 39°48' E 024°55'411.0
2018-Apr-12 11:57N 39°46' E 024°51'1410.9
2018-Apr-12 10:41N 39°37' E 024°37'410.6
2018-Apr-12 10:18N 39°34' E 024°33'310.6
2018-Apr-12 10:00N 39°32' E 024°30'910.6
2018-Apr-12 09:09N 39°26' E 024°21'510.5
2018-Apr-12 08:42N 39°23' E 024°16'410.6
2018-Apr-12 08:19N 39°20' E 024°13'  

Dump ship's entire track history